sensor_id;sensor_type;location;lat;lon;timestamp;P1;durP1;ratioP1;P2;durP2;ratioP2
2488;SDS011;1255;48.716;9.124;2022-11-20T00:00:36;3.35;;;2.78;;
2488;SDS011;1255;48.716;9.124;2022-11-20T00:03:03;2.35;;;2.10;;
2488;SDS011;1255;48.716;9.124;2022-11-20T00:05:33;3.78;;;2.97;;
2488;SDS011;1255;48.716;9.124;2022-11-20T00:07:59;5.07;;;2.80;;
2488;SDS011;1255;48.716;9.124;2022-11-20T00:10:26;2.38;;;2.10;;
2488;SDS011;1255;48.716;9.124;2022-11-20T00:12:53;3.15;;;2.85;;
2488;SDS011;1255;48.716;9.124;2022-11-20T00:15:20;2.33;;;2.13;;
2488;SDS011;1255;48.716;9.124;2022-11-20T00:17:46;2.88;;;2.58;;
2488;SDS011;1255;48.716;9.124;2022-11-20T00:20:13;4.28;;;2.92;;
2488;SDS011;1255;48.716;9.124;2022-11-20T00:22:41;3.33;;;2.60;;
2488;SDS011;1255;48.716;9.124;2022-11-20T00:25:08;3.75;;;2.63;;
2488;SDS011;1255;48.716;9.124;2022-11-20T00:27:36;3.70;;;2.67;;
2488;SDS011;1255;48.716;9.124;2022-11-20T00:30:03;2.97;;;2.47;;
2488;SDS011;1255;48.716;9.124;2022-11-20T00:32:30;3.72;;;2.80;;
2488;SDS011;1255;48.716;9.124;2022-11-20T00:34:57;2.95;;;2.25;;
2488;SDS011;1255;48.716;9.124;2022-11-20T00:37:23;3.78;;;2.50;;
2488;SDS011;1255;48.716;9.124;2022-11-20T00:39:51;3.58;;;3.05;;
2488;SDS011;1255;48.716;9.124;2022-11-20T00:42:18;3.58;;;3.00;;
2488;SDS011;1255;48.716;9.124;2022-11-20T00:44:45;2.50;;;2.28;;
2488;SDS011;1255;48.716;9.124;2022-11-20T00:47:12;4.20;;;2.85;;
2488;SDS011;1255;48.716;9.124;2022-11-20T00:49:38;2.88;;;2.30;;
2488;SDS011;1255;48.716;9.124;2022-11-20T00:52:05;4.25;;;2.35;;
2488;SDS011;1255;48.716;9.124;2022-11-20T00:54:32;2.85;;;2.65;;
2488;SDS011;1255;48.716;9.124;2022-11-20T00:57:00;2.75;;;2.50;;
2488;SDS011;1255;48.716;9.124;2022-11-20T00:59:27;3.15;;;2.85;;
2488;SDS011;1255;48.716;9.124;2022-11-20T01:01:53;3.35;;;2.45;;
2488;SDS011;1255;48.716;9.124;2022-11-20T01:04:20;2.92;;;2.65;;
2488;SDS011;1255;48.716;9.124;2022-11-20T01:06:47;3.08;;;2.13;;
2488;SDS011;1255;48.716;9.124;2022-11-20T01:09:14;2.60;;;2.40;;
2488;SDS011;1255;48.716;9.124;2022-11-20T01:11:41;2.55;;;2.35;;
2488;SDS011;1255;48.716;9.124;2022-11-20T01:14:11;2.85;;;2.20;;
2488;SDS011;1255;48.716;9.124;2022-11-20T01:16:40;3.45;;;2.50;;
2488;SDS011;1255;48.716;9.124;2022-11-20T01:19:10;4.30;;;2.40;;
2488;SDS011;1255;48.716;9.124;2022-11-20T01:21:39;3.17;;;2.15;;
2488;SDS011;1255;48.716;9.124;2022-11-20T01:24:08;2.15;;;1.95;;
2488;SDS011;1255;48.716;9.124;2022-11-20T01:26:38;4.85;;;2.42;;
2488;SDS011;1255;48.716;9.124;2022-11-20T01:29:06;5.32;;;2.85;;
2488;SDS011;1255;48.716;9.124;2022-11-20T01:31:38;2.88;;;2.25;;
2488;SDS011;1255;48.716;9.124;2022-11-20T01:34:05;3.35;;;2.67;;
2488;SDS011;1255;48.716;9.124;2022-11-20T01:36:35;2.50;;;2.25;;
2488;SDS011;1255;48.716;9.124;2022-11-20T01:39:03;4.95;;;2.47;;
2488;SDS011;1255;48.716;9.124;2022-11-20T01:41:32;2.35;;;2.15;;
2488;SDS011;1255;48.716;9.124;2022-11-20T01:44:19;2.60;;;2.28;;
2488;SDS011;1255;48.716;9.124;2022-11-20T01:46:50;2.38;;;2.13;;
2488;SDS011;1255;48.716;9.124;2022-11-20T01:49:22;3.20;;;2.13;;
2488;SDS011;1255;48.716;9.124;2022-11-20T01:51:51;3.38;;;1.92;;
2488;SDS011;1255;48.716;9.124;2022-11-20T01:54:22;5.78;;;2.42;;
2488;SDS011;1255;48.716;9.124;2022-11-20T01:56:54;3.78;;;2.72;;
2488;SDS011;1255;48.716;9.124;2022-11-20T01:59:23;1.73;;;1.63;;
2488;SDS011;1255;48.716;9.124;2022-11-20T02:01:53;2.58;;;1.95;;
2488;SDS011;1255;48.716;9.124;2022-11-20T02:04:20;2.30;;;1.85;;
2488;SDS011;1255;48.716;9.124;2022-11-20T02:06:48;2.72;;;2.45;;
2488;SDS011;1255;48.716;9.124;2022-11-20T02:09:18;2.08;;;1.77;;
2488;SDS011;1255;48.716;9.124;2022-11-20T02:11:44;4.60;;;1.95;;
2488;SDS011;1255;48.716;9.124;2022-11-20T02:14:11;3.47;;;2.40;;
2488;SDS011;1255;48.716;9.124;2022-11-20T02:16:37;1.73;;;1.63;;
2488;SDS011;1255;48.716;9.124;2022-11-20T02:19:13;1.98;;;1.77;;
2488;SDS011;1255;48.716;9.124;2022-11-20T02:21:49;2.30;;;1.95;;
2488;SDS011;1255;48.716;9.124;2022-11-20T02:24:23;2.10;;;1.90;;
2488;SDS011;1255;48.716;9.124;2022-11-20T02:26:51;4.10;;;2.65;;
2488;SDS011;1255;48.716;9.124;2022-11-20T02:29:23;2.53;;;2.33;;
2488;SDS011;1255;48.716;9.124;2022-11-20T02:31:51;1.98;;;1.85;;
2488;SDS011;1255;48.716;9.124;2022-11-20T02:34:21;4.00;;;2.45;;
2488;SDS011;1255;48.716;9.124;2022-11-20T02:36:47;3.45;;;2.20;;
2488;SDS011;1255;48.716;9.124;2022-11-20T02:39:15;7.32;;;2.63;;
2488;SDS011;1255;48.716;9.124;2022-11-20T02:41:44;2.85;;;2.35;;
2488;SDS011;1255;48.716;9.124;2022-11-20T02:44:10;3.05;;;2.30;;
2488;SDS011;1255;48.716;9.124;2022-11-20T02:46:37;4.78;;;2.85;;
2488;SDS011;1255;48.716;9.124;2022-11-20T02:49:05;3.15;;;2.53;;
2488;SDS011;1255;48.716;9.124;2022-11-20T02:51:31;3.35;;;2.50;;
2488;SDS011;1255;48.716;9.124;2022-11-20T02:53:58;3.55;;;2.85;;
2488;SDS011;1255;48.716;9.124;2022-11-20T02:56:25;4.43;;;3.00;;
2488;SDS011;1255;48.716;9.124;2022-11-20T02:58:54;2.95;;;2.65;;
2488;SDS011;1255;48.716;9.124;2022-11-20T03:01:20;4.03;;;2.70;;
2488;SDS011;1255;48.716;9.124;2022-11-20T03:03:47;3.63;;;2.60;;
2488;SDS011;1255;48.716;9.124;2022-11-20T03:06:14;3.20;;;2.90;;
2488;SDS011;1255;48.716;9.124;2022-11-20T03:08:41;3.22;;;2.78;;
2488;SDS011;1255;48.716;9.124;2022-11-20T03:11:08;2.65;;;2.45;;
2488;SDS011;1255;48.716;9.124;2022-11-20T03:13:35;4.70;;;3.33;;
2488;SDS011;1255;48.716;9.124;2022-11-20T03:16:07;4.82;;;3.20;;
2488;SDS011;1255;48.716;9.124;2022-11-20T03:18:36;3.20;;;2.75;;
2488;SDS011;1255;48.716;9.124;2022-11-20T03:21:03;3.78;;;2.78;;
2488;SDS011;1255;48.716;9.124;2022-11-20T03:23:31;2.35;;;2.15;;
2488;SDS011;1255;48.716;9.124;2022-11-20T03:26:08;2.45;;;2.25;;
2488;SDS011;1255;48.716;9.124;2022-11-20T03:28:35;2.90;;;2.50;;
2488;SDS011;1255;48.716;9.124;2022-11-20T03:31:07;3.70;;;2.90;;
2488;SDS011;1255;48.716;9.124;2022-11-20T03:33:35;2.85;;;2.63;;
2488;SDS011;1255;48.716;9.124;2022-11-20T03:36:02;3.38;;;3.08;;
2488;SDS011;1255;48.716;9.124;2022-11-20T03:38:30;3.10;;;2.72;;
2488;SDS011;1255;48.716;9.124;2022-11-20T03:40:58;3.42;;;2.55;;
2488;SDS011;1255;48.716;9.124;2022-11-20T03:43:26;3.47;;;2.35;;
2488;SDS011;1255;48.716;9.124;2022-11-20T03:45:52;3.50;;;2.72;;
2488;SDS011;1255;48.716;9.124;2022-11-20T03:48:21;3.20;;;2.90;;
2488;SDS011;1255;48.716;9.124;2022-11-20T03:50:47;3.25;;;2.33;;
2488;SDS011;1255;48.716;9.124;2022-11-20T03:53:14;3.33;;;2.88;;
2488;SDS011;1255;48.716;9.124;2022-11-20T03:55:41;3.67;;;2.70;;
2488;SDS011;1255;48.716;9.124;2022-11-20T03:58:08;4.50;;;2.67;;
2488;SDS011;1255;48.716;9.124;2022-11-20T04:00:35;4.70;;;3.28;;
2488;SDS011;1255;48.716;9.124;2022-11-20T04:03:02;3.10;;;2.50;;
2488;SDS011;1255;48.716;9.124;2022-11-20T04:05:32;3.70;;;2.80;;
2488;SDS011;1255;48.716;9.124;2022-11-20T04:07:59;4.32;;;3.03;;
2488;SDS011;1255;48.716;9.124;2022-11-20T04:10:26;3.08;;;2.72;;
2488;SDS011;1255;48.716;9.124;2022-11-20T04:12:52;3.20;;;2.28;;
2488;SDS011;1255;48.716;9.124;2022-11-20T04:15:19;4.20;;;3.10;;
2488;SDS011;1255;48.716;9.124;2022-11-20T04:17:46;5.10;;;2.80;;
2488;SDS011;1255;48.716;9.124;2022-11-20T04:20:13;3.00;;;2.70;;
2488;SDS011;1255;48.716;9.124;2022-11-20T04:22:41;2.85;;;2.40;;
2488;SDS011;1255;48.716;9.124;2022-11-20T04:25:08;2.33;;;2.13;;
2488;SDS011;1255;48.716;9.124;2022-11-20T04:27:35;5.88;;;3.28;;
2488;SDS011;1255;48.716;9.124;2022-11-20T04:30:01;3.58;;;2.80;;
2488;SDS011;1255;48.716;9.124;2022-11-20T04:32:28;4.13;;;3.17;;
2488;SDS011;1255;48.716;9.124;2022-11-20T04:34:55;3.67;;;2.67;;
2488;SDS011;1255;48.716;9.124;2022-11-20T04:37:22;4.18;;;3.40;;
2488;SDS011;1255;48.716;9.124;2022-11-20T04:39:50;3.08;;;2.75;;
2488;SDS011;1255;48.716;9.124;2022-11-20T04:42:17;4.10;;;3.20;;
2488;SDS011;1255;48.716;9.124;2022-11-20T04:44:55;3.53;;;2.92;;
2488;SDS011;1255;48.716;9.124;2022-11-20T04:47:23;3.17;;;2.78;;
2488;SDS011;1255;48.716;9.124;2022-11-20T04:49:50;4.80;;;3.42;;
2488;SDS011;1255;48.716;9.124;2022-11-20T04:52:17;4.20;;;3.00;;
2488;SDS011;1255;48.716;9.124;2022-11-20T04:54:44;2.63;;;2.42;;
2488;SDS011;1255;48.716;9.124;2022-11-20T04:57:13;4.07;;;2.88;;
2488;SDS011;1255;48.716;9.124;2022-11-20T04:59:41;3.22;;;2.88;;
2488;SDS011;1255;48.716;9.124;2022-11-20T05:02:08;3.35;;;2.85;;
2488;SDS011;1255;48.716;9.124;2022-11-20T05:04:35;2.90;;;2.38;;
2488;SDS011;1255;48.716;9.124;2022-11-20T05:07:02;2.63;;;2.40;;
2488;SDS011;1255;48.716;9.124;2022-11-20T05:09:29;3.70;;;2.88;;
2488;SDS011;1255;48.716;9.124;2022-11-20T05:11:56;3.20;;;2.90;;
2488;SDS011;1255;48.716;9.124;2022-11-20T05:14:24;3.03;;;2.72;;
2488;SDS011;1255;48.716;9.124;2022-11-20T05:16:51;4.50;;;2.80;;
2488;SDS011;1255;48.716;9.124;2022-11-20T05:19:17;2.67;;;2.47;;
2488;SDS011;1255;48.716;9.124;2022-11-20T05:21:44;3.05;;;2.75;;
2488;SDS011;1255;48.716;9.124;2022-11-20T05:24:11;4.88;;;2.60;;
2488;SDS011;1255;48.716;9.124;2022-11-20T05:26:37;2.50;;;2.22;;
2488;SDS011;1255;48.716;9.124;2022-11-20T05:29:04;3.75;;;2.60;;
2488;SDS011;1255;48.716;9.124;2022-11-20T05:31:32;2.40;;;2.20;;
2488;SDS011;1255;48.716;9.124;2022-11-20T05:33:59;2.55;;;2.33;;
2488;SDS011;1255;48.716;9.124;2022-11-20T05:36:26;3.00;;;2.80;;
2488;SDS011;1255;48.716;9.124;2022-11-20T05:38:52;5.25;;;2.40;;
2488;SDS011;1255;48.716;9.124;2022-11-20T05:41:19;3.20;;;2.53;;
2488;SDS011;1255;48.716;9.124;2022-11-20T05:43:47;2.70;;;2.20;;
2488;SDS011;1255;48.716;9.124;2022-11-20T05:46:15;2.42;;;2.22;;
2488;SDS011;1255;48.716;9.124;2022-11-20T05:48:45;2.90;;;2.60;;
2488;SDS011;1255;48.716;9.124;2022-11-20T05:51:14;2.40;;;2.20;;
2488;SDS011;1255;48.716;9.124;2022-11-20T05:53:42;2.70;;;1.80;;
2488;SDS011;1255;48.716;9.124;2022-11-20T05:56:10;3.20;;;2.70;;
2488;SDS011;1255;48.716;9.124;2022-11-20T05:58:39;2.92;;;2.65;;
2488;SDS011;1255;48.716;9.124;2022-11-20T06:01:07;2.72;;;2.40;;
2488;SDS011;1255;48.716;9.124;2022-11-20T06:03:35;3.08;;;2.33;;
2488;SDS011;1255;48.716;9.124;2022-11-20T06:06:04;2.40;;;1.90;;
2488;SDS011;1255;48.716;9.124;2022-11-20T06:08:32;1.77;;;1.67;;
2488;SDS011;1255;48.716;9.124;2022-11-20T06:11:02;3.67;;;2.00;;
2488;SDS011;1255;48.716;9.124;2022-11-20T06:13:29;3.67;;;2.20;;
2488;SDS011;1255;48.716;9.124;2022-11-20T06:15:56;2.75;;;2.55;;
2488;SDS011;1255;48.716;9.124;2022-11-20T06:18:25;8.02;;;2.30;;
2488;SDS011;1255;48.716;9.124;2022-11-20T06:20:58;2.25;;;2.05;;
2488;SDS011;1255;48.716;9.124;2022-11-20T06:23:28;3.65;;;1.95;;
2488;SDS011;1255;48.716;9.124;2022-11-20T06:25:55;2.05;;;1.85;;
2488;SDS011;1255;48.716;9.124;2022-11-20T06:28:22;2.13;;;1.88;;
2488;SDS011;1255;48.716;9.124;2022-11-20T06:30:49;3.30;;;2.13;;
2488;SDS011;1255;48.716;9.124;2022-11-20T06:33:15;2.50;;;2.30;;
2488;SDS011;1255;48.716;9.124;2022-11-20T06:35:42;4.07;;;2.00;;
2488;SDS011;1255;48.716;9.124;2022-11-20T06:38:09;3.63;;;2.15;;
2488;SDS011;1255;48.716;9.124;2022-11-20T06:40:38;3.60;;;2.40;;
2488;SDS011;1255;48.716;9.124;2022-11-20T06:43:06;2.60;;;2.00;;
2488;SDS011;1255;48.716;9.124;2022-11-20T06:45:33;2.50;;;2.30;;
2488;SDS011;1255;48.716;9.124;2022-11-20T06:48:00;2.72;;;2.15;;
2488;SDS011;1255;48.716;9.124;2022-11-20T06:50:27;5.07;;;2.10;;
2488;SDS011;1255;48.716;9.124;2022-11-20T06:52:53;2.35;;;1.80;;
2488;SDS011;1255;48.716;9.124;2022-11-20T06:55:20;3.30;;;2.13;;
2488;SDS011;1255;48.716;9.124;2022-11-20T06:57:48;2.47;;;2.17;;
2488;SDS011;1255;48.716;9.124;2022-11-20T07:00:16;2.40;;;2.20;;
2488;SDS011;1255;48.716;9.124;2022-11-20T07:02:43;2.10;;;1.90;;
2488;SDS011;1255;48.716;9.124;2022-11-20T07:05:10;3.55;;;2.33;;
2488;SDS011;1255;48.716;9.124;2022-11-20T07:07:37;2.22;;;2.03;;
2488;SDS011;1255;48.716;9.124;2022-11-20T07:10:04;1.77;;;1.60;;
2488;SDS011;1255;48.716;9.124;2022-11-20T07:12:31;2.88;;;2.00;;
2488;SDS011;1255;48.716;9.124;2022-11-20T07:14:59;6.68;;;2.53;;
2488;SDS011;1255;48.716;9.124;2022-11-20T07:17:26;3.28;;;1.92;;
2488;SDS011;1255;48.716;9.124;2022-11-20T07:19:53;2.55;;;2.03;;
2488;SDS011;1255;48.716;9.124;2022-11-20T07:22:20;1.98;;;1.60;;
2488;SDS011;1255;48.716;9.124;2022-11-20T07:24:46;2.30;;;2.10;;
2488;SDS011;1255;48.716;9.124;2022-11-20T07:27:13;2.97;;;2.28;;
2488;SDS011;1255;48.716;9.124;2022-11-20T07:29:40;4.55;;;2.50;;
2488;SDS011;1255;48.716;9.124;2022-11-20T07:32:08;2.10;;;1.83;;
2488;SDS011;1255;48.716;9.124;2022-11-20T07:34:35;2.92;;;1.60;;
2488;SDS011;1255;48.716;9.124;2022-11-20T07:37:01;1.98;;;1.80;;
2488;SDS011;1255;48.716;9.124;2022-11-20T07:39:28;2.05;;;1.40;;
2488;SDS011;1255;48.716;9.124;2022-11-20T07:41:55;2.00;;;1.83;;
2488;SDS011;1255;48.716;9.124;2022-11-20T07:44:22;2.15;;;1.60;;
2488;SDS011;1255;48.716;9.124;2022-11-20T07:46:48;3.10;;;2.00;;
2488;SDS011;1255;48.716;9.124;2022-11-20T07:49:16;1.60;;;1.50;;
2488;SDS011;1255;48.716;9.124;2022-11-20T07:51:43;2.67;;;1.77;;
2488;SDS011;1255;48.716;9.124;2022-11-20T07:54:10;1.75;;;1.65;;
2488;SDS011;1255;48.716;9.124;2022-11-20T07:56:37;1.73;;;1.63;;
2488;SDS011;1255;48.716;9.124;2022-11-20T07:59:03;2.10;;;1.90;;
2488;SDS011;1255;48.716;9.124;2022-11-20T08:01:30;2.50;;;2.10;;
2488;SDS011;1255;48.716;9.124;2022-11-20T08:03:57;2.90;;;2.03;;
2488;SDS011;1255;48.716;9.124;2022-11-20T08:06:25;3.90;;;2.20;;
2488;SDS011;1255;48.716;9.124;2022-11-20T08:08:52;2.30;;;1.95;;
2488;SDS011;1255;48.716;9.124;2022-11-20T08:11:19;2.75;;;1.75;;
2488;SDS011;1255;48.716;9.124;2022-11-20T08:14:03;1.70;;;1.60;;
2488;SDS011;1255;48.716;9.124;2022-11-20T08:16:39;2.58;;;1.92;;
2488;SDS011;1255;48.716;9.124;2022-11-20T08:19:06;1.40;;;1.27;;
2488;SDS011;1255;48.716;9.124;2022-11-20T08:21:34;1.55;;;1.45;;
2488;SDS011;1255;48.716;9.124;2022-11-20T08:24:01;1.95;;;1.77;;
2488;SDS011;1255;48.716;9.124;2022-11-20T08:26:28;1.83;;;1.63;;
2488;SDS011;1255;48.716;9.124;2022-11-20T08:28:55;1.88;;;1.70;;
2488;SDS011;1255;48.716;9.124;2022-11-20T08:31:23;3.40;;;1.45;;
2488;SDS011;1255;48.716;9.124;2022-11-20T08:33:51;1.95;;;1.75;;
2488;SDS011;1255;48.716;9.124;2022-11-20T08:36:18;1.55;;;1.45;;
2488;SDS011;1255;48.716;9.124;2022-11-20T08:38:48;2.20;;;2.00;;
2488;SDS011;1255;48.716;9.124;2022-11-20T08:41:15;2.10;;;1.90;;
2488;SDS011;1255;48.716;9.124;2022-11-20T08:43:52;1.70;;;1.60;;
2488;SDS011;1255;48.716;9.124;2022-11-20T08:46:21;1.50;;;1.40;;
2488;SDS011;1255;48.716;9.124;2022-11-20T08:48:48;2.60;;;1.67;;
2488;SDS011;1255;48.716;9.124;2022-11-20T08:51:15;1.58;;;1.40;;
2488;SDS011;1255;48.716;9.124;2022-11-20T08:53:42;2.13;;;1.60;;
2488;SDS011;1255;48.716;9.124;2022-11-20T08:56:10;2.08;;;1.35;;
2488;SDS011;1255;48.716;9.124;2022-11-20T08:58:37;1.85;;;1.40;;
2488;SDS011;1255;48.716;9.124;2022-11-20T09:01:04;1.70;;;1.45;;
2488;SDS011;1255;48.716;9.124;2022-11-20T09:03:31;2.25;;;1.73;;
2488;SDS011;1255;48.716;9.124;2022-11-20T09:05:58;1.52;;;1.30;;
2488;SDS011;1255;48.716;9.124;2022-11-20T09:08:26;1.75;;;1.30;;
2488;SDS011;1255;48.716;9.124;2022-11-20T09:10:54;1.58;;;1.15;;
2488;SDS011;1255;48.716;9.124;2022-11-20T09:13:23;2.00;;;1.23;;
2488;SDS011;1255;48.716;9.124;2022-11-20T09:15:54;1.92;;;1.65;;
2488;SDS011;1255;48.716;9.124;2022-11-20T09:18:21;2.75;;;1.23;;
2488;SDS011;1255;48.716;9.124;2022-11-20T09:20:48;1.58;;;1.40;;
2488;SDS011;1255;48.716;9.124;2022-11-20T09:23:16;2.85;;;0.90;;
2488;SDS011;1255;48.716;9.124;2022-11-20T09:25:43;1.65;;;1.35;;
2488;SDS011;1255;48.716;9.124;2022-11-20T09:28:10;1.45;;;1.30;;
2488;SDS011;1255;48.716;9.124;2022-11-20T09:30:38;1.20;;;1.10;;
2488;SDS011;1255;48.716;9.124;2022-11-20T09:33:05;1.10;;;1.00;;
2488;SDS011;1255;48.716;9.124;2022-11-20T09:35:32;1.63;;;1.35;;
2488;SDS011;1255;48.716;9.124;2022-11-20T09:38:04;2.38;;;1.10;;
2488;SDS011;1255;48.716;9.124;2022-11-20T09:40:32;1.00;;;0.90;;
2488;SDS011;1255;48.716;9.124;2022-11-20T09:43:01;1.45;;;1.35;;
2488;SDS011;1255;48.716;9.124;2022-11-20T09:45:38;1.23;;;1.13;;
2488;SDS011;1255;48.716;9.124;2022-11-20T09:48:18;1.10;;;1.00;;
2488;SDS011;1255;48.716;9.124;2022-11-20T09:50:56;1.00;;;0.90;;
2488;SDS011;1255;48.716;9.124;2022-11-20T09:53:35;0.98;;;0.88;;
2488;SDS011;1255;48.716;9.124;2022-11-20T09:56:08;1.25;;;1.00;;
2488;SDS011;1255;48.716;9.124;2022-11-20T09:58:38;1.20;;;1.02;;
2488;SDS011;1255;48.716;9.124;2022-11-20T10:01:10;2.25;;;1.10;;
2488;SDS011;1255;48.716;9.124;2022-11-20T10:03:43;1.00;;;0.90;;
2488;SDS011;1255;48.716;9.124;2022-11-20T10:06:17;1.02;;;0.90;;
2488;SDS011;1255;48.716;9.124;2022-11-20T10:08:58;1.40;;;0.80;;
2488;SDS011;1255;48.716;9.124;2022-11-20T10:11:33;1.27;;;1.17;;
2488;SDS011;1255;48.716;9.124;2022-11-20T10:14:11;1.00;;;0.82;;
2488;SDS011;1255;48.716;9.124;2022-11-20T10:16:46;1.10;;;1.00;;
2488;SDS011;1255;48.716;9.124;2022-11-20T10:19:30;1.02;;;0.93;;
2488;SDS011;1255;48.716;9.124;2022-11-20T10:22:11;1.00;;;0.90;;
2488;SDS011;1255;48.716;9.124;2022-11-20T10:24:48;1.15;;;1.02;;
2488;SDS011;1255;48.716;9.124;2022-11-20T10:27:25;1.20;;;1.10;;
2488;SDS011;1255;48.716;9.124;2022-11-20T10:30:07;1.00;;;0.80;;
2488;SDS011;1255;48.716;9.124;2022-11-20T10:32:38;1.25;;;1.00;;
2488;SDS011;1255;48.716;9.124;2022-11-20T10:35:09;1.00;;;0.90;;
2488;SDS011;1255;48.716;9.124;2022-11-20T10:37:46;1.42;;;1.33;;
2488;SDS011;1255;48.716;9.124;2022-11-20T10:40:19;1.23;;;1.00;;
2488;SDS011;1255;48.716;9.124;2022-11-20T10:42:51;0.88;;;0.80;;
2488;SDS011;1255;48.716;9.124;2022-11-20T10:45:34;0.90;;;0.75;;
2488;SDS011;1255;48.716;9.124;2022-11-20T10:48:12;0.80;;;0.70;;
2488;SDS011;1255;48.716;9.124;2022-11-20T10:50:53;1.40;;;1.30;;
2488;SDS011;1255;48.716;9.124;2022-11-20T10:53:31;1.52;;;1.10;;
2488;SDS011;1255;48.716;9.124;2022-11-20T10:56:11;2.72;;;0.98;;
2488;SDS011;1255;48.716;9.124;2022-11-20T10:58:45;1.30;;;1.08;;
2488;SDS011;1255;48.716;9.124;2022-11-20T11:01:20;1.20;;;1.08;;
2488;SDS011;1255;48.716;9.124;2022-11-20T11:03:49;1.08;;;0.90;;
2488;SDS011;1255;48.716;9.124;2022-11-20T11:06:19;1.55;;;1.08;;
2488;SDS011;1255;48.716;9.124;2022-11-20T11:08:53;1.42;;;1.15;;
2488;SDS011;1255;48.716;9.124;2022-11-20T11:11:26;1.10;;;1.00;;
2488;SDS011;1255;48.716;9.124;2022-11-20T11:14:04;1.15;;;0.95;;
2488;SDS011;1255;48.716;9.124;2022-11-20T11:16:31;0.80;;;0.80;;
2488;SDS011;1255;48.716;9.124;2022-11-20T11:19:04;1.33;;;1.00;;
2488;SDS011;1255;48.716;9.124;2022-11-20T11:21:32;1.10;;;0.95;;
2488;SDS011;1255;48.716;9.124;2022-11-20T11:24:01;1.65;;;1.30;;
2488;SDS011;1255;48.716;9.124;2022-11-20T11:26:29;1.40;;;1.17;;
2488;SDS011;1255;48.716;9.124;2022-11-20T11:28:57;1.30;;;1.20;;
2488;SDS011;1255;48.716;9.124;2022-11-20T11:31:25;1.65;;;1.55;;
2488;SDS011;1255;48.716;9.124;2022-11-20T11:34:04;1.58;;;1.20;;
2488;SDS011;1255;48.716;9.124;2022-11-20T11:36:31;1.15;;;1.05;;
2488;SDS011;1255;48.716;9.124;2022-11-20T11:39:00;2.95;;;1.40;;
2488;SDS011;1255;48.716;9.124;2022-11-20T11:41:30;1.40;;;1.30;;
2488;SDS011;1255;48.716;9.124;2022-11-20T11:44:00;1.60;;;1.20;;
2488;SDS011;1255;48.716;9.124;2022-11-20T11:46:59;1.20;;;1.10;;
2488;SDS011;1255;48.716;9.124;2022-11-20T11:49:27;1.33;;;1.23;;
2488;SDS011;1255;48.716;9.124;2022-11-20T11:52:00;0.98;;;0.88;;
2488;SDS011;1255;48.716;9.124;2022-11-20T11:54:32;2.40;;;1.20;;
2488;SDS011;1255;48.716;9.124;2022-11-20T11:57:05;1.27;;;1.10;;
2488;SDS011;1255;48.716;9.124;2022-11-20T11:59:41;2.00;;;0.85;;
2488;SDS011;1255;48.716;9.124;2022-11-20T12:02:21;1.30;;;1.20;;
2488;SDS011;1255;48.716;9.124;2022-11-20T12:04:58;1.20;;;1.05;;
2488;SDS011;1255;48.716;9.124;2022-11-20T12:07:35;1.10;;;1.00;;
2488;SDS011;1255;48.716;9.124;2022-11-20T12:10:10;1.75;;;1.20;;
2488;SDS011;1255;48.716;9.124;2022-11-20T12:12:47;2.05;;;1.10;;
2488;SDS011;1255;48.716;9.124;2022-11-20T12:15:25;1.20;;;1.10;;
2488;SDS011;1255;48.716;9.124;2022-11-20T12:17:55;2.65;;;1.50;;
2488;SDS011;1255;48.716;9.124;2022-11-20T12:20:24;1.30;;;1.20;;
2488;SDS011;1255;48.716;9.124;2022-11-20T12:22:55;1.30;;;1.15;;
2488;SDS011;1255;48.716;9.124;2022-11-20T12:25:28;1.90;;;1.10;;
2488;SDS011;1255;48.716;9.124;2022-11-20T12:28:04;1.55;;;1.02;;
2488;SDS011;1255;48.716;9.124;2022-11-20T12:30:48;1.50;;;1.00;;
2488;SDS011;1255;48.716;9.124;2022-11-20T12:33:40;1.23;;;0.90;;
2488;SDS011;1255;48.716;9.124;2022-11-20T12:36:19;1.80;;;1.10;;
2488;SDS011;1255;48.716;9.124;2022-11-20T12:38:59;1.02;;;0.93;;
2488;SDS011;1255;48.716;9.124;2022-11-20T12:41:43;1.15;;;1.05;;
2488;SDS011;1255;48.716;9.124;2022-11-20T12:44:54;1.42;;;1.00;;
2488;SDS011;1255;48.716;9.124;2022-11-20T12:47:46;1.52;;;0.90;;
2488;SDS011;1255;48.716;9.124;2022-11-20T12:50:27;1.83;;;1.02;;
2488;SDS011;1255;48.716;9.124;2022-11-20T12:53:01;1.13;;;0.98;;
2488;SDS011;1255;48.716;9.124;2022-11-20T12:55:33;1.20;;;1.02;;
2488;SDS011;1255;48.716;9.124;2022-11-20T12:58:10;1.55;;;0.93;;
2488;SDS011;1255;48.716;9.124;2022-11-20T13:00:47;1.33;;;0.90;;
2488;SDS011;1255;48.716;9.124;2022-11-20T13:03:32;1.10;;;0.95;;
2488;SDS011;1255;48.716;9.124;2022-11-20T13:06:13;0.95;;;0.85;;
2488;SDS011;1255;48.716;9.124;2022-11-20T13:08:47;1.30;;;1.10;;
2488;SDS011;1255;48.716;9.124;2022-11-20T13:11:18;1.00;;;0.80;;
2488;SDS011;1255;48.716;9.124;2022-11-20T13:16:41;1.48;;;1.20;;
2488;SDS011;1255;48.716;9.124;2022-11-20T13:19:14;1.85;;;1.15;;
2488;SDS011;1255;48.716;9.124;2022-11-20T13:21:43;3.67;;;1.13;;
2488;SDS011;1255;48.716;9.124;2022-11-20T13:24:22;1.00;;;0.90;;
2488;SDS011;1255;48.716;9.124;2022-11-20T13:27:01;1.25;;;1.10;;
2488;SDS011;1255;48.716;9.124;2022-11-20T13:29:30;2.72;;;1.52;;
2488;SDS011;1255;48.716;9.124;2022-11-20T13:32:13;2.00;;;1.20;;
2488;SDS011;1255;48.716;9.124;2022-11-20T13:34:51;1.08;;;0.90;;
2488;SDS011;1255;48.716;9.124;2022-11-20T13:37:24;1.52;;;0.90;;
2488;SDS011;1255;48.716;9.124;2022-11-20T13:40:04;0.95;;;0.85;;
2488;SDS011;1255;48.716;9.124;2022-11-20T13:42:33;1.30;;;1.17;;
2488;SDS011;1255;48.716;9.124;2022-11-20T13:45:21;1.20;;;1.10;;
2488;SDS011;1255;48.716;9.124;2022-11-20T13:48:04;1.40;;;1.15;;
2488;SDS011;1255;48.716;9.124;2022-11-20T13:51:04;1.48;;;1.05;;
2488;SDS011;1255;48.716;9.124;2022-11-20T13:53:57;1.00;;;0.90;;
2488;SDS011;1255;48.716;9.124;2022-11-20T13:56:51;1.20;;;1.00;;
2488;SDS011;1255;48.716;9.124;2022-11-20T13:59:30;1.00;;;0.90;;
2488;SDS011;1255;48.716;9.124;2022-11-20T14:02:12;1.00;;;0.90;;
2488;SDS011;1255;48.716;9.124;2022-11-20T14:04:42;1.20;;;1.10;;
2488;SDS011;1255;48.716;9.124;2022-11-20T14:07:12;2.70;;;1.50;;
2488;SDS011;1255;48.716;9.124;2022-11-20T14:09:48;1.33;;;0.95;;
2488;SDS011;1255;48.716;9.124;2022-11-20T14:12:19;1.15;;;1.00;;
2488;SDS011;1255;48.716;9.124;2022-11-20T14:14:48;1.40;;;0.90;;
2488;SDS011;1255;48.716;9.124;2022-11-20T14:17:18;2.90;;;1.10;;
2488;SDS011;1255;48.716;9.124;2022-11-20T14:19:46;1.52;;;1.10;;
2488;SDS011;1255;48.716;9.124;2022-11-20T14:22:19;1.25;;;1.08;;
2488;SDS011;1255;48.716;9.124;2022-11-20T14:24:48;1.20;;;1.02;;
2488;SDS011;1255;48.716;9.124;2022-11-20T14:27:16;1.08;;;0.85;;
2488;SDS011;1255;48.716;9.124;2022-11-20T14:29:47;1.42;;;1.10;;
2488;SDS011;1255;48.716;9.124;2022-11-20T14:32:16;1.55;;;1.20;;
2488;SDS011;1255;48.716;9.124;2022-11-20T14:34:44;1.80;;;1.00;;
2488;SDS011;1255;48.716;9.124;2022-11-20T14:37:17;1.20;;;1.00;;
2488;SDS011;1255;48.716;9.124;2022-11-20T14:39:48;3.08;;;1.52;;
2488;SDS011;1255;48.716;9.124;2022-11-20T14:42:20;1.20;;;1.10;;
2488;SDS011;1255;48.716;9.124;2022-11-20T14:44:49;1.67;;;1.15;;
2488;SDS011;1255;48.716;9.124;2022-11-20T14:47:23;1.40;;;1.15;;
2488;SDS011;1255;48.716;9.124;2022-11-20T14:49:53;1.20;;;1.02;;
2488;SDS011;1255;48.716;9.124;2022-11-20T14:52:23;2.20;;;1.30;;
2488;SDS011;1255;48.716;9.124;2022-11-20T14:54:53;1.50;;;1.08;;
2488;SDS011;1255;48.716;9.124;2022-11-20T14:57:26;1.40;;;1.17;;
2488;SDS011;1255;48.716;9.124;2022-11-20T15:00:07;1.75;;;1.30;;
2488;SDS011;1255;48.716;9.124;2022-11-20T15:02:46;3.30;;;1.55;;
2488;SDS011;1255;48.716;9.124;2022-11-20T15:05:16;2.00;;;1.15;;
2488;SDS011;1255;48.716;9.124;2022-11-20T15:07:45;1.67;;;1.50;;
2488;SDS011;1255;48.716;9.124;2022-11-20T15:10:21;2.10;;;1.20;;
2488;SDS011;1255;48.716;9.124;2022-11-20T15:12:52;1.73;;;1.30;;
2488;SDS011;1255;48.716;9.124;2022-11-20T15:15:24;1.30;;;1.15;;
2488;SDS011;1255;48.716;9.124;2022-11-20T15:17:56;1.40;;;1.30;;
2488;SDS011;1255;48.716;9.124;2022-11-20T15:20:26;3.00;;;1.20;;
2488;SDS011;1255;48.716;9.124;2022-11-20T15:22:58;1.65;;;1.15;;
2488;SDS011;1255;48.716;9.124;2022-11-20T15:25:28;1.38;;;1.27;;
2488;SDS011;1255;48.716;9.124;2022-11-20T15:27:57;1.27;;;1.15;;
2488;SDS011;1255;48.716;9.124;2022-11-20T15:30:27;1.40;;;0.90;;
2488;SDS011;1255;48.716;9.124;2022-11-20T15:32:55;1.75;;;1.38;;
2488;SDS011;1255;48.716;9.124;2022-11-20T15:35:28;1.10;;;1.00;;
2488;SDS011;1255;48.716;9.124;2022-11-20T15:37:58;2.53;;;1.45;;